createdAt,value
2023-01-07T00:01:22.812Z,12.01
2023-01-07T00:03:50.424Z,12.01
2023-01-07T00:06:28.492Z,12.00
2023-01-07T00:08:56.537Z,11.99
2023-01-07T00:11:37.478Z,12.02
2023-01-07T00:14:06.074Z,11.97
2023-01-07T00:16:33.712Z,11.88
2023-01-07T00:19:01.597Z,11.92
2023-01-07T00:21:29.136Z,11.95
2023-01-07T00:23:57.193Z,11.96
2023-01-07T00:26:25.776Z,11.87
2023-01-07T00:28:53.394Z,11.86
2023-01-07T00:31:25.875Z,11.81
2023-01-07T00:33:59.002Z,11.83
2023-01-07T00:36:30.002Z,11.88
2023-01-07T00:39:06.589Z,11.93
2023-01-07T00:41:33.180Z,11.88
2023-01-07T00:44:00.052Z,11.92
2023-01-07T00:46:26.534Z,11.92
2023-01-07T00:48:53.195Z,11.83
2023-01-07T00:51:19.718Z,11.87
2023-01-07T00:53:47.196Z,11.85
2023-01-07T00:56:15.082Z,11.82
2023-01-07T00:58:42.000Z,11.78
2023-01-07T01:01:10.721Z,11.73
2023-01-07T01:03:38.266Z,11.70
2023-01-07T01:06:12.637Z,11.70
2023-01-07T01:08:42.235Z,11.73
2023-01-07T01:11:09.985Z,11.69
2023-01-07T01:13:37.213Z,11.73
2023-01-07T01:16:09.432Z,11.67
2023-01-07T01:18:36.591Z,11.65
2023-01-07T01:21:08.118Z,11.70
2023-01-07T01:23:35.113Z,11.71
2023-01-07T01:26:12.443Z,11.64
2023-01-07T01:28:39.103Z,11.66
2023-01-07T01:31:08.129Z,11.67
2023-01-07T01:33:34.624Z,11.70
2023-01-07T01:36:05.897Z,11.73
2023-01-07T01:38:32.444Z,11.66
2023-01-07T01:40:58.924Z,11.63
2023-01-07T01:43:37.767Z,11.67
2023-01-07T01:46:16.211Z,11.68
2023-01-07T01:49:00.402Z,11.63
2023-01-07T01:51:34.453Z,11.64
2023-01-07T01:54:06.042Z,11.68
2023-01-07T01:56:35.864Z,11.64
2023-01-07T01:59:10.169Z,11.65
2023-01-07T02:01:37.407Z,11.69
2023-01-07T02:04:12.889Z,11.69
2023-01-07T02:06:50.578Z,11.64
2023-01-07T02:09:17.033Z,11.64
2023-01-07T02:12:05.487Z,11.62
2023-01-07T02:15:01.320Z,11.60
2023-01-07T02:18:04.973Z,11.59
2023-01-07T02:21:08.979Z,11.53
2023-01-07T02:23:56.464Z,11.49
2023-01-07T02:26:57.135Z,11.52
2023-01-07T02:30:05.615Z,11.50
2023-01-07T02:32:45.573Z,11.49
2023-01-07T02:35:46.079Z,11.40
2023-01-07T02:38:18.621Z,11.36
2023-01-07T02:40:57.234Z,11.36
2023-01-07T02:43:23.483Z,11.36
2023-01-07T02:45:59.037Z,11.31
2023-01-07T02:48:26.325Z,11.32
2023-01-07T02:50:52.664Z,11.37
2023-01-07T02:53:21.081Z,11.32
2023-01-07T02:56:22.738Z,11.35
2023-01-07T02:59:04.143Z,11.24
2023-01-07T03:02:00.953Z,11.22
2023-01-07T03:04:53.434Z,11.16
2023-01-07T03:07:37.261Z,11.13
2023-01-07T03:10:03.885Z,11.09
2023-01-07T03:12:36.895Z,11.09
2023-01-07T03:15:14.380Z,11.08
2023-01-07T03:17:58.009Z,11.06
2023-01-07T03:20:26.029Z,11.02
2023-01-07T03:22:53.617Z,11.02
2023-01-07T03:25:23.224Z,11.00
2023-01-07T03:27:53.399Z,11.05
2023-01-07T03:30:20.976Z,11.11
2023-01-07T03:33:09.421Z,11.13
2023-01-07T03:35:40.098Z,11.19
2023-01-07T03:38:08.831Z,11.16
2023-01-07T03:40:35.443Z,11.13
2023-01-07T03:43:01.860Z,11.16
2023-01-07T03:45:28.852Z,11.11
2023-01-07T03:47:56.752Z,11.13
2023-01-07T03:50:23.886Z,11.09
2023-01-07T03:52:51.056Z,11.11
2023-01-07T03:55:17.698Z,11.06
2023-01-07T03:57:44.143Z,11.08
2023-01-07T04:00:12.871Z,11.01
2023-01-07T04:02:39.237Z,11.01
2023-01-07T04:05:06.142Z,11.01
2023-01-07T04:07:32.622Z,10.97
2023-01-07T04:09:59.034Z,10.91
2023-01-07T04:12:25.385Z,10.96
2023-01-07T04:14:52.094Z,10.94
2023-01-07T04:17:18.580Z,10.93
2023-01-07T04:19:45.357Z,10.87
2023-01-07T04:22:12.139Z,10.89
2023-01-07T04:24:38.608Z,10.84
2023-01-07T04:27:05.214Z,10.93
2023-01-07T04:29:31.975Z,10.90
2023-01-07T04:31:59.363Z,10.88
2023-01-07T04:34:25.784Z,10.91
2023-01-07T04:36:52.229Z,10.93
2023-01-07T04:39:18.769Z,10.94
2023-01-07T04:41:45.197Z,10.93
2023-01-07T04:44:11.927Z,10.98
2023-01-07T04:46:38.599Z,10.98
2023-01-07T04:49:04.949Z,10.95
2023-01-07T04:51:31.341Z,10.99
2023-01-07T04:53:58.391Z,10.96
2023-01-07T04:56:24.728Z,10.97
2023-01-07T04:58:51.155Z,10.97
2023-01-07T05:01:18.039Z,10.97
2023-01-07T05:03:44.486Z,10.98
2023-01-07T05:06:11.089Z,10.97
2023-01-07T05:08:37.553Z,10.95
2023-01-07T05:11:05.235Z,11.00
2023-01-07T05:13:31.990Z,11.02
2023-01-07T05:15:59.251Z,11.02
2023-01-07T05:18:25.765Z,11.04
2023-01-07T05:20:52.255Z,11.04
2023-01-07T05:23:18.722Z,11.03
2023-01-07T05:25:45.133Z,11.05
2023-01-07T05:28:12.270Z,11.01
2023-01-07T05:30:39.362Z,10.92
2023-01-07T05:33:07.314Z,10.96
2023-01-07T05:35:34.776Z,10.92
2023-01-07T05:38:01.185Z,10.96
2023-01-07T05:40:27.547Z,10.91
2023-01-07T05:42:54.338Z,10.91
2023-01-07T05:45:21.940Z,11.01
2023-01-07T05:47:48.666Z,11.01
2023-01-07T05:50:15.214Z,10.97
2023-01-07T05:52:41.586Z,11.00
2023-01-07T05:55:08.719Z,11.02
2023-01-07T05:57:35.176Z,10.96
2023-01-07T06:00:01.550Z,11.01
2023-01-07T06:02:27.931Z,10.99
2023-01-07T06:04:54.310Z,11.02
2023-01-07T06:07:20.745Z,11.03
2023-01-07T06:09:47.327Z,11.06
2023-01-07T06:12:13.717Z,11.16
2023-01-07T06:14:40.085Z,11.19
2023-01-07T06:17:06.500Z,11.20
2023-01-07T06:19:32.842Z,11.18
2023-01-07T06:21:59.558Z,11.21
2023-01-07T06:24:26.009Z,11.25
2023-01-07T06:26:52.404Z,11.29
2023-01-07T06:29:18.760Z,11.25
2023-01-07T06:31:45.221Z,11.20
2023-01-07T06:34:11.597Z,11.15
2023-01-07T06:36:37.953Z,11.15
2023-01-07T06:39:05.013Z,11.18
2023-01-07T06:41:31.319Z,11.18
2023-01-07T06:43:57.737Z,11.21
2023-01-07T06:46:24.686Z,11.19
2023-01-07T06:48:51.158Z,11.23
2023-01-07T06:51:17.617Z,11.20
2023-01-07T06:53:43.995Z,11.23
2023-01-07T06:56:10.363Z,11.15
2023-01-07T06:58:36.678Z,11.21
2023-01-07T07:01:07.579Z,11.21
2023-01-07T07:03:34.041Z,11.18
2023-01-07T07:06:00.722Z,11.22
2023-01-07T07:08:27.245Z,11.15
2023-01-07T07:10:53.733Z,11.16
2023-01-07T07:13:20.222Z,11.19
2023-01-07T07:15:46.758Z,11.20
2023-01-07T07:18:13.159Z,11.21
2023-01-07T07:20:39.489Z,11.22
2023-01-07T07:23:05.943Z,11.18
2023-01-07T07:25:32.377Z,11.16
2023-01-07T07:27:58.874Z,11.18
2023-01-07T07:30:46.630Z,11.13
2023-01-07T07:33:14.676Z,11.11
2023-01-07T07:35:41.182Z,11.14
2023-01-07T07:38:07.525Z,11.15
2023-01-07T07:40:33.902Z,11.10
2023-01-07T07:43:10.462Z,11.17
2023-01-07T07:45:42.108Z,11.16
2023-01-07T07:48:09.713Z,11.22
2023-01-07T07:50:36.310Z,11.18
2023-01-07T07:53:03.192Z,11.25
2023-01-07T07:55:29.753Z,11.23
2023-01-07T07:57:58.204Z,11.16
2023-01-07T08:00:24.697Z,11.21
2023-01-07T08:02:51.115Z,11.17
2023-01-07T08:05:17.627Z,11.31
2023-01-07T08:07:43.996Z,11.41
2023-01-07T08:10:10.529Z,11.43
2023-01-07T08:12:38.313Z,11.51
2023-01-07T08:15:06.409Z,11.76
2023-01-07T08:17:32.980Z,11.75
2023-01-07T08:19:59.471Z,11.75
2023-01-07T08:22:25.902Z,11.73
2023-01-07T08:24:52.242Z,11.71
2023-01-07T08:27:18.709Z,11.67
2023-01-07T08:29:45.195Z,11.71
2023-01-07T08:32:11.613Z,11.70
2023-01-07T08:34:38.050Z,11.78
2023-01-07T08:37:04.522Z,11.78
2023-01-07T08:39:30.939Z,11.78
2023-01-07T08:41:57.395Z,11.92
2023-01-07T08:44:23.885Z,11.88
2023-01-07T08:46:53.070Z,11.67
2023-01-07T08:49:19.448Z,11.58
2023-01-07T08:51:45.939Z,11.51
2023-01-07T08:54:12.322Z,11.54
2023-01-07T08:56:38.725Z,11.57
2023-01-07T08:59:05.293Z,11.56
2023-01-07T09:01:31.894Z,11.58
2023-01-07T09:03:58.358Z,11.48
2023-01-07T09:06:24.921Z,11.52
2023-01-07T09:08:51.422Z,11.40
2023-01-07T09:11:17.991Z,11.41
2023-01-07T09:13:44.470Z,11.47
2023-01-07T09:16:10.973Z,11.55
2023-01-07T09:18:37.339Z,11.59
2023-01-07T09:21:04.113Z,11.56
2023-01-07T09:23:30.859Z,11.56
2023-01-07T09:25:57.270Z,11.63
2023-01-07T09:28:23.751Z,11.63
2023-01-07T09:30:50.190Z,11.65
2023-01-07T09:33:16.657Z,11.68
2023-01-07T09:35:43.158Z,11.71
2023-01-07T09:38:09.644Z,11.68
2023-01-07T09:40:38.908Z,11.72
2023-01-07T09:43:59.864Z,11.66
2023-01-07T09:46:15.304Z,11.64
2023-01-07T09:48:54.134Z,11.74
2023-01-07T09:51:43.754Z,11.73
2023-01-07T09:54:39.645Z,11.80
2023-01-07T09:57:06.449Z,11.86
2023-01-07T09:59:32.894Z,11.96
2023-01-07T10:02:31.850Z,11.91
2023-01-07T10:05:04.028Z,12.02
2023-01-07T10:07:47.088Z,12.13
2023-01-07T10:10:28.745Z,12.24
2023-01-07T10:13:11.730Z,12.12
2023-01-07T10:15:59.492Z,12.01
2023-01-07T10:18:54.190Z,12.00
2023-01-07T10:21:25.311Z,12.00
2023-01-07T10:24:17.630Z,11.99
2023-01-07T10:26:48.286Z,12.00
2023-01-07T10:29:18.820Z,12.02
2023-01-07T10:31:46.951Z,12.11
2023-01-07T10:34:18.075Z,12.10
2023-01-07T10:37:01.672Z,12.11
2023-01-07T10:39:42.850Z,12.13
2023-01-07T10:42:15.463Z,12.21
2023-01-07T10:45:12.149Z,12.10
2023-01-07T10:47:55.986Z,11.98
2023-01-07T10:50:46.803Z,11.94
2023-01-07T10:53:28.613Z,11.90
2023-01-07T10:56:16.323Z,11.93
2023-01-07T10:58:45.003Z,11.90
2023-01-07T11:01:35.448Z,11.87
2023-01-07T11:04:03.292Z,11.88
2023-01-07T11:06:51.026Z,11.92
2023-01-07T11:09:22.644Z,11.91
2023-01-07T11:11:50.772Z,11.86
2023-01-07T11:14:24.494Z,11.83
2023-01-07T11:16:56.892Z,11.82
2023-01-07T11:19:43.046Z,11.82
2023-01-07T11:22:27.724Z,11.86
2023-01-07T11:24:56.088Z,11.89
2023-01-07T11:27:25.584Z,11.87
2023-01-07T11:30:10.801Z,11.93
2023-01-07T11:32:40.365Z,11.85
2023-01-07T11:35:22.459Z,11.80
2023-01-07T11:37:49.656Z,11.83
2023-01-07T11:40:16.073Z,11.88
2023-01-07T11:42:55.347Z,11.81
2023-01-07T11:45:26.992Z,11.82
2023-01-07T11:48:10.173Z,11.87
2023-01-07T11:50:54.980Z,11.88
2023-01-07T11:53:43.799Z,11.92
2023-01-07T11:56:13.168Z,11.87
2023-01-07T11:58:45.513Z,11.87
2023-01-07T12:01:15.937Z,11.89
2023-01-07T12:04:10.961Z,11.98
2023-01-07T12:06:41.205Z,11.99
2023-01-07T12:09:07.540Z,11.98
2023-01-07T12:11:36.561Z,11.94
2023-01-07T12:14:08.612Z,11.90
2023-01-07T12:16:36.326Z,12.03
2023-01-07T12:19:22.626Z,11.99
2023-01-07T12:22:11.237Z,12.01
2023-01-07T12:25:03.986Z,12.04
2023-01-07T12:27:36.403Z,12.08
2023-01-07T12:30:21.944Z,12.10
2023-01-07T12:33:14.001Z,12.10
2023-01-07T12:35:43.799Z,12.07
2023-01-07T12:38:31.249Z,12.13
2023-01-07T12:41:05.739Z,12.22
2023-01-07T12:43:48.026Z,12.30
2023-01-07T12:46:17.704Z,12.26
2023-01-07T12:49:14.107Z,12.28
2023-01-07T12:51:47.637Z,12.31
2023-01-07T12:54:38.626Z,12.35
2023-01-07T12:57:12.903Z,12.45
2023-01-07T13:00:00.021Z,12.56
2023-01-07T13:02:33.083Z,12.62
2023-01-07T13:05:14.221Z,12.57
2023-01-07T13:07:44.328Z,12.60
2023-01-07T13:10:24.858Z,12.59
2023-01-07T13:12:57.005Z,12.56
2023-01-07T13:15:32.959Z,12.54
2023-01-07T13:18:12.717Z,12.61
2023-01-07T13:21:03.596Z,12.58
2023-01-07T13:23:51.895Z,12.53
2023-01-07T13:26:35.472Z,12.54
2023-01-07T13:29:24.427Z,12.57
2023-01-07T13:32:45.678Z,12.52
2023-01-07T13:35:25.053Z,12.50
2023-01-07T13:38:08.932Z,12.39
2023-01-07T13:40:44.376Z,12.41
2023-01-07T13:43:44.872Z,12.56
2023-01-07T13:46:19.317Z,12.50
2023-01-07T13:48:54.013Z,12.47
2023-01-07T13:51:36.575Z,12.44
2023-01-07T13:54:03.483Z,12.43
2023-01-07T13:56:33.887Z,12.47
2023-01-07T13:59:00.658Z,12.46
2023-01-07T14:01:32.971Z,12.46
2023-01-07T14:04:06.959Z,12.46
2023-01-07T14:06:44.139Z,12.42
2023-01-07T14:09:16.997Z,12.40
2023-01-07T14:12:08.563Z,12.44
2023-01-07T14:15:06.260Z,12.37
2023-01-07T14:18:17.985Z,12.55
2023-01-07T14:20:48.536Z,12.63
2023-01-07T14:23:29.650Z,12.76
2023-01-07T14:26:21.364Z,12.85
2023-01-07T14:29:16.481Z,12.73
2023-01-07T14:31:43.385Z,12.59
2023-01-07T14:34:26.793Z,12.54
2023-01-07T14:37:02.354Z,12.53
2023-01-07T14:39:43.109Z,12.47
2023-01-07T14:42:18.805Z,12.46
2023-01-07T14:44:46.981Z,12.46
2023-01-07T14:47:15.048Z,12.45
2023-01-07T14:49:57.031Z,12.46
2023-01-07T14:52:56.454Z,12.32
2023-01-07T14:55:52.080Z,12.27
2023-01-07T14:58:39.486Z,12.22
2023-01-07T15:01:34.567Z,12.22
2023-01-07T15:04:19.763Z,12.22
2023-01-07T15:06:46.913Z,12.17
2023-01-07T15:09:45.482Z,12.10
2023-01-07T15:12:37.425Z,12.05
2023-01-07T15:15:32.198Z,11.97
2023-01-07T15:17:58.933Z,11.92
2023-01-07T15:20:37.989Z,11.83
2023-01-07T15:23:32.308Z,11.83
2023-01-07T15:26:19.973Z,11.79
2023-01-07T15:29:09.650Z,11.76
2023-01-07T15:31:47.997Z,11.74
2023-01-07T15:34:16.588Z,11.71
2023-01-07T15:36:49.987Z,11.64
2023-01-07T15:39:32.287Z,11.54
2023-01-07T15:42:00.698Z,11.49
2023-01-07T15:44:41.105Z,11.46
2023-01-07T15:47:34.643Z,11.50
2023-01-07T15:50:34.268Z,11.44
2023-01-07T15:53:06.392Z,11.42
2023-01-07T15:55:38.440Z,11.32
2023-01-07T15:58:24.436Z,11.22
2023-01-07T16:00:58.063Z,11.23
2023-01-07T16:03:25.061Z,11.20
2023-01-07T16:05:53.311Z,11.16
2023-01-07T16:08:27.640Z,11.17
2023-01-07T16:11:23.413Z,11.14
2023-01-07T16:13:57.055Z,11.14
2023-01-07T16:16:24.955Z,11.07
2023-01-07T16:18:56.011Z,11.03
2023-01-07T16:21:25.171Z,11.01
2023-01-07T16:23:51.648Z,11.01
2023-01-07T16:26:23.350Z,10.98
2023-01-07T16:28:54.519Z,10.98
2023-01-07T16:31:24.407Z,10.90
2023-01-07T16:33:54.696Z,10.86
2023-01-07T16:36:25.484Z,10.87
2023-01-07T16:38:56.887Z,10.88
2023-01-07T16:41:28.860Z,10.96
2023-01-07T16:44:00.147Z,10.91
2023-01-07T16:46:28.799Z,10.95
2023-01-07T16:49:18.780Z,10.86
2023-01-07T16:51:50.020Z,10.93
2023-01-07T16:54:25.613Z,10.89
2023-01-07T16:56:58.669Z,10.88
2023-01-07T16:59:29.266Z,10.85
2023-01-07T17:01:58.876Z,10.83
2023-01-07T17:04:30.437Z,10.84
2023-01-07T17:06:58.936Z,10.87
2023-01-07T17:09:35.513Z,10.87
2023-01-07T17:12:02.905Z,10.84
2023-01-07T17:14:38.457Z,10.79
2023-01-07T17:17:19.455Z,10.76
2023-01-07T17:20:09.843Z,10.75
2023-01-07T17:22:38.341Z,10.73
2023-01-07T17:25:15.586Z,10.67
2023-01-07T17:27:50.566Z,10.65
2023-01-07T17:30:20.440Z,10.71
2023-01-07T17:32:50.538Z,10.68
2023-01-07T17:35:22.305Z,10.68
2023-01-07T17:37:49.673Z,10.74
2023-01-07T17:40:17.261Z,10.75
2023-01-07T17:43:04.323Z,10.68
2023-01-07T17:45:30.779Z,10.69
2023-01-07T17:47:58.729Z,10.61
2023-01-07T17:50:28.734Z,10.60
2023-01-07T17:52:55.162Z,10.59
2023-01-07T17:55:25.940Z,10.62
2023-01-07T17:57:52.803Z,10.63
2023-01-07T18:00:25.082Z,10.64
2023-01-07T18:02:52.143Z,10.66
2023-01-07T18:05:25.008Z,10.66
2023-01-07T18:07:52.812Z,10.65
2023-01-07T18:10:51.253Z,10.67
2023-01-07T18:13:17.791Z,10.70
2023-01-07T18:15:44.275Z,10.70
2023-01-07T18:18:10.658Z,10.71
2023-01-07T18:20:37.152Z,10.74
2023-01-07T18:23:03.650Z,10.82
2023-01-07T18:25:31.681Z,10.83
2023-01-07T18:27:58.039Z,10.88
2023-01-07T18:30:24.674Z,10.88
2023-01-07T18:32:52.969Z,10.89
2023-01-07T18:35:19.859Z,10.92
2023-01-07T18:37:50.386Z,10.90
2023-01-07T18:40:17.354Z,10.95
2023-01-07T18:42:43.936Z,11.00
2023-01-07T18:45:10.762Z,11.01
2023-01-07T18:47:37.190Z,11.03
2023-01-07T18:50:03.970Z,11.05
2023-01-07T18:52:30.962Z,11.09
2023-01-07T18:54:57.629Z,11.07
2023-01-07T18:57:24.063Z,11.14
2023-01-07T18:59:50.496Z,11.14
2023-01-07T19:02:19.430Z,11.15
2023-01-07T19:04:50.499Z,11.16
2023-01-07T19:07:18.791Z,11.15
2023-01-07T19:09:45.699Z,11.14
2023-01-07T19:12:12.327Z,11.14
2023-01-07T19:14:39.971Z,11.13
2023-01-07T19:17:07.593Z,11.06
2023-01-07T19:19:47.541Z,11.10
2023-01-07T19:22:16.191Z,11.10
2023-01-07T19:24:42.924Z,11.09
2023-01-07T19:27:09.322Z,11.17
2023-01-07T19:29:35.687Z,11.23
2023-01-07T19:32:02.165Z,11.20
2023-01-07T19:34:28.801Z,11.22
2023-01-07T19:36:55.218Z,11.18
2023-01-07T19:39:23.417Z,11.20
2023-01-07T19:41:50.309Z,11.27
2023-01-07T19:44:16.942Z,11.22
2023-01-07T19:46:44.116Z,11.23
2023-01-07T19:49:11.896Z,11.25
2023-01-07T19:51:40.034Z,11.34
2023-01-07T19:54:08.525Z,11.28
2023-01-07T19:56:36.402Z,11.24
2023-01-07T19:59:03.180Z,11.29
2023-01-07T20:01:29.830Z,11.19
2023-01-07T20:03:58.481Z,11.18
2023-01-07T20:06:27.425Z,11.22
2023-01-07T20:08:55.355Z,11.24
2023-01-07T20:11:22.728Z,11.29
2023-01-07T20:13:50.371Z,11.35
2023-01-07T20:16:20.462Z,11.32
2023-01-07T20:18:49.498Z,11.32
2023-01-07T20:21:17.990Z,11.29
2023-01-07T20:23:44.535Z,11.28
2023-01-07T20:26:16.204Z,11.27
2023-01-07T20:28:43.862Z,11.28
2023-01-07T20:31:13.450Z,11.39
2023-01-07T20:33:41.342Z,11.40
2023-01-07T20:36:13.069Z,11.44
2023-01-07T20:38:40.334Z,11.48
2023-01-07T20:41:09.209Z,11.47
2023-01-07T20:43:37.096Z,11.52
2023-01-07T20:46:06.151Z,11.55
2023-01-07T20:48:32.989Z,11.60
2023-01-07T20:50:59.543Z,11.64
2023-01-07T20:53:28.876Z,11.70
2023-01-07T20:55:56.718Z,11.78
2023-01-07T20:58:23.461Z,11.79
2023-01-07T21:00:49.862Z,11.82
2023-01-07T21:03:16.413Z,11.79
2023-01-07T21:05:43.446Z,11.82
2023-01-07T21:08:10.300Z,11.84
2023-01-07T21:10:38.024Z,11.80
2023-01-07T21:13:04.935Z,11.82
2023-01-07T21:15:31.792Z,11.82
2023-01-07T21:17:58.152Z,11.84
2023-01-07T21:20:24.653Z,11.85
2023-01-07T21:22:51.030Z,11.84
2023-01-07T21:25:17.684Z,11.84
2023-01-07T21:27:44.165Z,11.85
2023-01-07T21:30:16.396Z,11.88
2023-01-07T21:32:43.148Z,11.91
2023-01-07T21:35:11.517Z,11.94
2023-01-07T21:37:38.670Z,11.93
2023-01-07T21:40:06.487Z,11.94
2023-01-07T21:42:35.054Z,12.00
2023-01-07T21:45:01.448Z,12.01
2023-01-07T21:47:27.831Z,11.96
2023-01-07T21:49:54.299Z,11.89
2023-01-07T21:52:20.727Z,11.87
2023-01-07T21:54:47.280Z,11.95
2023-01-07T21:57:13.678Z,11.98
2023-01-07T21:59:40.043Z,11.96
2023-01-07T22:02:06.786Z,11.96
2023-01-07T22:04:34.812Z,11.94
2023-01-07T22:07:01.225Z,11.95
2023-01-07T22:09:27.651Z,11.92
2023-01-07T22:11:54.046Z,11.95
2023-01-07T22:14:20.921Z,12.00
2023-01-07T22:16:49.174Z,11.99
2023-01-07T22:19:16.070Z,11.94
2023-01-07T22:21:42.448Z,11.89
2023-01-07T22:24:09.459Z,11.93
2023-01-07T22:26:36.279Z,11.89
2023-01-07T22:29:07.017Z,11.93
2023-01-07T22:31:38.382Z,11.93
2023-01-07T22:34:06.836Z,11.92
2023-01-07T22:36:46.139Z,11.92
2023-01-07T22:39:21.088Z,11.90
2023-01-07T22:41:48.783Z,11.90
2023-01-07T22:44:23.835Z,11.93
2023-01-07T22:46:51.259Z,11.92
2023-01-07T22:49:18.311Z,11.91
2023-01-07T22:51:47.800Z,11.86
2023-01-07T22:54:16.527Z,11.93
2023-01-07T22:56:44.476Z,11.95
2023-01-07T22:59:11.066Z,11.95
2023-01-07T23:01:39.844Z,11.98
2023-01-07T23:04:06.388Z,11.99
2023-01-07T23:06:32.804Z,12.01
2023-01-07T23:08:59.372Z,11.98
2023-01-07T23:11:44.365Z,11.92
2023-01-07T23:14:11.072Z,11.94
2023-01-07T23:16:37.755Z,11.95
2023-01-07T23:19:04.558Z,11.86
2023-01-07T23:21:34.384Z,11.91
2023-01-07T23:24:00.767Z,11.91
2023-01-07T23:26:27.273Z,11.85
2023-01-07T23:28:53.656Z,11.84
2023-01-07T23:31:20.401Z,11.83
2023-01-07T23:33:47.260Z,11.79
2023-01-07T23:36:13.768Z,11.85
2023-01-07T23:38:40.097Z,11.88
2023-01-07T23:41:09.067Z,11.84
2023-01-07T23:43:35.511Z,11.85
2023-01-07T23:46:04.126Z,11.85
2023-01-07T23:48:32.477Z,11.78
2023-01-07T23:51:12.966Z,11.64
2023-01-07T23:53:40.196Z,11.61
2023-01-07T23:56:07.696Z,11.65
2023-01-07T23:58:35.225Z,11.63
